»·PEaware :: AAL1 KJFK-KLAX

AAL1 :: KJFK-KLAX

FLIGHT INFORMATION

Flight Status: Arrived
Operator:
American Airlines
More flights by this operator :: More flights under this callsign
Pilot: Matthew M. (8235)
Aircraft: AIRBUS A321
(A321)
More flights by this aircraft type
Origin: KJFK Kennedy Intl
United States
Destination: KLAX Los Angeles Intl
United States
More flights between these airports :: More routes between these airports
Route: COATE Q436 RAAKK Q438 RUBYY DABJU KG78M KG75K KP69G KP66E KD60A KD57Y FLOOD KD48U TAHIB JASSE Q90 DNERO ANJLL4
File this flight plan on PilotEdge
Remarks:
Altitude:
(Current/Filed)
30,000ft
Speed:
(Current/Filed)
459kts
Departed: 23-Oct-21 10:04 AM
Arrived: 23-Oct-21 03:07 PM
Distance/Time
Traveled:
2144nm/5:02
Distance/Time
To Go:
Arrived

Flight Plot

Page will automatically refresh every two minutes.

Flight plan parsing failed; only flown route is shown


Map Options




Map Legend


Flown Route
Filed Route
Departure Airport
Arrival Airport
Navaid (VOR, NDB)
Fix

Horizontal Profiles

Position Reports

Time Latitude Longitude Heading Altitude Ground
Speed
23-Oct-21 09:43 40.647727 -73.793422 150 22ft 0kts
23-Oct-21 09:44 40.647727 -73.793422 150 22ft 0kts
23-Oct-21 09:45 40.647727 -73.793422 150 22ft 0kts
23-Oct-21 09:46 40.647727 -73.793422 150 22ft 0kts
23-Oct-21 09:47 40.647727 -73.793422 150 22ft 0kts
23-Oct-21 09:48 40.647727 -73.793422 150 22ft 0kts
23-Oct-21 09:49 40.647727 -73.793422 150 22ft 0kts
23-Oct-21 09:50 40.647727 -73.793422 150 22ft 0kts
23-Oct-21 09:51 40.647727 -73.793422 150 22ft 0kts
23-Oct-21 09:52 40.647892 -73.793543 150 22ft 2kts
23-Oct-21 09:53 40.648448 -73.793717 209 22ft 2kts
23-Oct-21 09:54 40.648612 -73.793478 241 22ft 0kts
23-Oct-21 09:55 40.648612 -73.793478 241 22ft 0kts
23-Oct-21 09:56 40.647741 -73.795383 241 22ft 12kts
23-Oct-21 09:57 40.643085 -73.795981 184 22ft 26kts
23-Oct-21 09:58 40.637958 -73.790916 120 22ft 25kts
23-Oct-21 09:59 40.634012 -73.782178 121 22ft 26kts
23-Oct-21 10:00 40.631195 -73.773902 120 22ft 28kts
23-Oct-21 10:01 40.628966 -73.771263 210 22ft 0kts
23-Oct-21 10:02 40.628966 -73.771263 210 22ft 0kts
23-Oct-21 10:03 40.631350 -73.779165 300 22ft 104kts
23-Oct-21 10:04 40.647696 -73.834964 269 1877ft 181kts
23-Oct-21 10:05 40.613752 -73.890958 206 2859ft 231kts
23-Oct-21 10:06 40.542513 -73.878149 153 4339ft 276kts
23-Oct-21 10:07 40.532512 -73.786255 42 6452ft 278kts
23-Oct-21 10:08 40.592365 -73.716134 36 8460ft 289kts
23-Oct-21 10:09 40.657125 -73.647965 27 10250ft 300kts
23-Oct-21 10:10 40.737222 -73.584335 26 11152ft 347kts
23-Oct-21 10:11 40.831335 -73.511346 26 12032ft 393kts
23-Oct-21 10:12 40.934579 -73.454673 344 13670ft 388kts
23-Oct-21 10:13 40.997897 -73.553825 277 15268ft 368kts
23-Oct-21 10:14 41.014377 -73.693474 277 16488ft 388kts
23-Oct-21 10:15 41.032198 -73.837110 277 18008ft 396kts
23-Oct-21 10:16 41.050222 -73.982315 277 19399ft 403kts
23-Oct-21 10:17 41.068457 -74.130589 277 20667ft 411kts
23-Oct-21 10:18 41.086788 -74.281281 276 21831ft 419kts
23-Oct-21 10:19 41.105385 -74.434824 276 23031ft 422kts
23-Oct-21 10:20 41.123842 -74.587914 276 24306ft 420kts
23-Oct-21 10:21 41.155133 -74.736226 293 25474ft 426kts
23-Oct-21 10:22 41.213736 -74.872170 295 26597ft 424kts
23-Oct-21 10:23 41.272265 -75.007120 295 27586ft 421kts
23-Oct-21 10:24 41.330673 -75.143095 300 28151ft 428kts
23-Oct-21 10:25 41.390497 -75.281904 299 28471ft 439kts
23-Oct-21 10:26 41.451487 -75.424746 299 28867ft 448kts
23-Oct-21 10:27 41.503049 -75.575043 291 29638ft 445kts
23-Oct-21 10:28 41.547191 -75.730207 290 29997ft 452kts
23-Oct-21 10:29 41.592156 -75.888146 290 29999ft 457kts
23-Oct-21 10:30 41.637221 -76.047144 290 29999ft 457kts
23-Oct-21 10:31 41.681834 -76.205884 290 29999ft 457kts
23-Oct-21 10:32 41.726503 -76.365557 290 29999ft 457kts
23-Oct-21 10:33 41.770860 -76.525244 290 29999ft 457kts
23-Oct-21 10:34 41.815051 -76.684959 290 29999ft 457kts
23-Oct-21 10:35 41.859015 -76.845495 290 29999ft 457kts
23-Oct-21 10:36 41.902805 -77.006179 290 29999ft 457kts
23-Oct-21 10:37 41.946686 -77.168603 290 29999ft 464kts
23-Oct-21 10:38 41.990473 -77.331883 289 29999ft 464kts
23-Oct-21 10:39 42.034539 -77.495367 290 29998ft 464kts
23-Oct-21 10:40 42.078963 -77.658679 289 29998ft 464kts
23-Oct-21 10:41 42.123248 -77.822439 289 29999ft 464kts
23-Oct-21 10:42 42.167315 -77.986331 289 29999ft 464kts
23-Oct-21 10:43 42.211039 -78.151056 289 29999ft 464kts
23-Oct-21 10:44 42.254138 -78.315692 288 29999ft 464kts
23-Oct-21 10:45 42.295104 -78.481042 288 29999ft 464kts
23-Oct-21 10:46 42.335887 -78.646869 288 29999ft 464kts
23-Oct-21 10:47 42.376363 -78.813154 288 29999ft 464kts
23-Oct-21 10:48 42.416970 -78.979502 288 29999ft 464kts
23-Oct-21 10:49 42.457661 -79.145267 288 29999ft 464kts
23-Oct-21 10:50 42.497994 -79.311419 288 29999ft 464kts
23-Oct-21 10:51 42.538190 -79.478426 288 29999ft 464kts
23-Oct-21 10:52 42.578038 -79.645250 288 29999ft 464kts
23-Oct-21 10:53 42.611061 -79.814452 278 29999ft 464kts
23-Oct-21 10:54 42.621094 -79.989257 273 29999ft 464kts
23-Oct-21 10:55 42.628495 -80.164442 273 29999ft 464kts
23-Oct-21 10:56 42.635725 -80.338893 273 29999ft 464kts
23-Oct-21 10:58 42.642687 -80.513930 273 29999ft 464kts
23-Oct-21 10:59 42.648895 -80.689234 272 29999ft 464kts
23-Oct-21 11:00 42.654677 -80.864604 272 29999ft 464kts
23-Oct-21 11:01 42.660161 -81.039322 272 29999ft 464kts
23-Oct-21 11:02 42.665356 -81.214249 272 29999ft 464kts
23-Oct-21 11:03 42.680969 -81.387602 279 29999ft 464kts
23-Oct-21 11:04 42.701044 -81.560537 279 29999ft 464kts
23-Oct-21 11:05 42.720719 -81.734073 278 29999ft 464kts
23-Oct-21 11:06 42.740064 -81.907348 278 29999ft 464kts
23-Oct-21 11:07 42.759228 -82.081255 278 29999ft 464kts
23-Oct-21 11:08 42.778029 -82.254499 278 29999ft 464kts
23-Oct-21 11:09 42.796588 -82.428529 278 29999ft 464kts
23-Oct-21 11:10 42.816432 -82.601998 280 29999ft 464kts
23-Oct-21 11:11 42.840113 -82.775173 280 29999ft 464kts
23-Oct-21 11:12 42.863357 -82.948152 280 29999ft 464kts
23-Oct-21 11:13 42.886306 -83.121204 280 29999ft 464kts
23-Oct-21 11:14 42.908915 -83.295237 278 29997ft 464kts
23-Oct-21 11:15 42.925030 -83.470461 277 29998ft 464kts
23-Oct-21 11:16 42.940335 -83.645866 277 29998ft 464kts
23-Oct-21 11:17 42.955325 -83.820744 276 29999ft 464kts
23-Oct-21 11:18 42.970141 -83.996460 276 29999ft 464kts
23-Oct-21 11:19 42.984626 -84.171478 276 29999ft 464kts
23-Oct-21 11:20 42.998880 -84.347230 276 29999ft 464kts
23-Oct-21 11:21 43.012781 -84.522523 276 29998ft 464kts
23-Oct-21 11:22 43.030362 -84.696602 278 29999ft 464kts
23-Oct-21 11:23 43.050185 -84.870893 278 29999ft 464kts
23-Oct-21 11:24 43.069652 -85.045354 278 29999ft 464kts
23-Oct-21 11:25 43.088811 -85.219646 278 29999ft 464kts
23-Oct-21 11:26 43.107932 -85.394329 278 29999ft 464kts
23-Oct-21 11:26 43.123776 -85.539792 278 29999ft 464kts
23-Oct-21 11:28 43.145222 -85.743714 277 29999ft 464kts
23-Oct-21 11:29 43.163217 -85.918304 277 29999ft 464kts
23-Oct-21 11:30 43.180921 -86.093378 277 29999ft 464kts
23-Oct-21 11:30 43.193698 -86.239755 272 29999ft 464kts
23-Oct-21 11:31 43.184083 -86.415216 261 29999ft 464kts
23-Oct-21 11:33 43.161486 -86.619506 261 29999ft 464kts
23-Oct-21 11:34 43.142113 -86.794260 261 29999ft 464kts
23-Oct-21 11:34 43.125724 -86.940181 261 29999ft 464kts
23-Oct-21 11:35 43.105847 -87.114729 261 29999ft 464kts
23-Oct-21 11:36 43.085666 -87.289432 261 29999ft 464kts
23-Oct-21 11:38 43.061872 -87.492237 261 29999ft 464kts
23-Oct-21 11:38 43.044591 -87.637367 261 29999ft 464kts
23-Oct-21 11:39 43.023589 -87.811307 260 29999ft 464kts
23-Oct-21 11:40 43.001481 -87.984801 257 29999ft 464kts
23-Oct-21 11:41 42.964132 -88.153371 251 29999ft 464kts
23-Oct-21 11:42 42.923699 -88.320231 251 29999ft 464kts
23-Oct-21 11:43 42.882868 -88.486979 251 29999ft 464kts
23-Oct-21 11:44 42.841654 -88.653536 251 29998ft 464kts
23-Oct-21 11:45 42.800600 -88.819994 251 29999ft 464kts
23-Oct-21 11:46 42.759249 -88.986196 251 29999ft 464kts
23-Oct-21 11:47 42.717639 -89.152164 251 29999ft 464kts
23-Oct-21 11:48 42.675712 -89.318193 251 29999ft 464kts
23-Oct-21 11:49 42.633702 -89.483361 251 29999ft 464kts
23-Oct-21 11:50 42.591440 -89.648315 251 29999ft 464kts
23-Oct-21 11:51 42.548787 -89.813885 250 29999ft 464kts
23-Oct-21 11:52 42.505751 -89.979166 250 29999ft 464kts
23-Oct-21 11:53 42.466972 -90.146441 252 29999ft 464kts
23-Oct-21 11:54 42.428451 -90.313510 252 29999ft 464kts
23-Oct-21 11:55 42.389542 -90.480557 252 29999ft 464kts
23-Oct-21 11:56 42.350316 -90.647666 252 29999ft 464kts
23-Oct-21 11:57 42.311080 -90.814046 252 29999ft 464kts
23-Oct-21 11:58 42.271513 -90.980243 252 29999ft 464kts
23-Oct-21 11:59 42.231622 -91.146480 252 29999ft 464kts
23-Oct-21 12:00 42.191637 -91.311910 252 29999ft 464kts
23-Oct-21 12:01 42.151426 -91.477077 252 29999ft 464kts
23-Oct-21 12:02 42.110931 -91.642225 252 29999ft 464kts
23-Oct-21 12:03 42.070198 -91.807591 251 29999ft 464kts
23-Oct-21 12:04 42.029199 -91.972531 251 29999ft 464kts
23-Oct-21 12:05 41.987941 -92.137262 251 29999ft 464kts
23-Oct-21 12:06 41.946588 -92.301215 251 29999ft 464kts
23-Oct-21 12:07 41.904982 -92.465025 251 29999ft 464kts
23-Oct-21 12:08 41.862664 -92.628743 251 29998ft 464kts
23-Oct-21 12:09 41.820533 -92.792265 250 29999ft 464kts
23-Oct-21 12:10 41.778218 -92.955574 250 29999ft 464kts
23-Oct-21 12:11 41.735351 -93.119791 250 29999ft 464kts
23-Oct-21 12:12 41.692520 -93.282711 250 29999ft 464kts
23-Oct-21 12:13 41.649426 -93.445543 250 29999ft 464kts
23-Oct-21 12:14 41.605647 -93.609821 250 29999ft 464kts
23-Oct-21 12:15 41.562006 -93.772717 250 29999ft 464kts
23-Oct-21 12:16 41.518057 -93.935005 250 29999ft 464kts
23-Oct-21 12:17 41.477033 -94.098294 252 29999ft 464kts
23-Oct-21 12:18 41.437684 -94.262147 252 29999ft 464kts
23-Oct-21 12:19 41.397741 -94.426552 252 29999ft 464kts
23-Oct-21 12:20 41.357757 -94.589876 252 29999ft 464kts
23-Oct-21 12:21 41.317678 -94.752765 251 29999ft 464kts
23-Oct-21 12:22 41.277148 -94.916240 251 29999ft 464kts
23-Oct-21 12:23 41.236481 -95.078923 251 29999ft 464kts
23-Oct-21 12:24 41.195545 -95.241522 251 29999ft 464kts
23-Oct-21 12:25 41.154369 -95.403928 251 29999ft 464kts
23-Oct-21 12:26 41.113021 -95.565861 251 29999ft 464kts
23-Oct-21 12:27 41.071460 -95.727618 250 29999ft 464kts
23-Oct-21 12:28 41.029334 -95.889950 250 29999ft 464kts
23-Oct-21 12:29 40.988719 -96.052549 253 29999ft 464kts
23-Oct-21 12:30 40.951536 -96.215619 253 29999ft 464kts
23-Oct-21 12:31 40.913776 -96.378493 253 29999ft 464kts
23-Oct-21 12:32 40.875389 -96.541186 252 29998ft 464kts
23-Oct-21 12:33 40.836910 -96.703634 252 29999ft 464kts
23-Oct-21 12:34 40.798408 -96.866221 252 29999ft 464kts
23-Oct-21 12:35 40.759675 -97.028378 252 29999ft 464kts
23-Oct-21 12:36 40.720645 -97.190603 252 29999ft 464kts
23-Oct-21 12:37 40.681328 -97.352871 252 29999ft 464kts
23-Oct-21 12:38 40.641931 -97.514344 252 29999ft 464kts
23-Oct-21 12:39 40.602374 -97.675408 251 29999ft 464kts
23-Oct-21 12:40 40.562559 -97.836859 251 29999ft 464kts
23-Oct-21 12:41 40.522425 -97.998095 251 29999ft 464kts
23-Oct-21 12:42 40.481963 -98.159476 251 29999ft 464kts
23-Oct-21 12:43 40.444582 -98.307603 251 29999ft 464kts
23-Oct-21 12:44 40.403864 -98.467916 251 29999ft 464kts
23-Oct-21 12:45 40.362777 -98.628596 251 29999ft 464kts
23-Oct-21 12:46 40.321628 -98.788873 251 30811ft 455kts
23-Oct-21 12:47 40.281081 -98.945415 251 31648ft 453kts
23-Oct-21 12:48 40.240266 -99.101903 251 31999ft 460kts
23-Oct-21 12:49 40.198293 -99.261872 251 31999ft 464kts
23-Oct-21 12:50 40.156031 -99.421809 251 31999ft 464kts
23-Oct-21 12:51 40.113635 -99.581141 251 31999ft 464kts
23-Oct-21 12:52 40.071126 -99.739984 250 31998ft 464kts
23-Oct-21 12:53 40.028128 -99.898974 250 31999ft 464kts
23-Oct-21 12:54 39.986819 -100.058695 252 31999ft 464kts
23-Oct-21 12:55 39.948492 -100.219378 252 31999ft 464kts
23-Oct-21 12:56 39.909631 -100.379701 252 31999ft 464kts
23-Oct-21 12:57 39.870075 -100.539969 252 31998ft 464kts
23-Oct-21 12:58 39.830694 -100.699413 252 31999ft 464kts
23-Oct-21 12:59 39.791163 -100.859341 252 31999ft 464kts
23-Oct-21 13:00 39.751432 -101.018689 252 31999ft 464kts
23-Oct-21 13:01 39.711529 -101.177622 252 31999ft 464kts
23-Oct-21 13:02 39.671371 -101.336494 251 31999ft 464kts
23-Oct-21 13:03 39.630887 -101.495568 251 31999ft 464kts
23-Oct-21 13:04 39.590228 -101.654196 251 31999ft 464kts
23-Oct-21 13:05 39.549417 -101.812527 251 31999ft 464kts
23-Oct-21 13:06 39.508190 -101.970598 250 31998ft 464kts
23-Oct-21 13:07 39.456977 -102.123959 245 31999ft 464kts
23-Oct-21 13:08 39.402734 -102.275383 245 31999ft 464kts
23-Oct-21 13:09 39.348439 -102.426194 245 31999ft 464kts
23-Oct-21 13:10 39.293872 -102.576998 245 31999ft 464kts
23-Oct-21 13:11 39.239050 -102.727992 244 31999ft 464kts
23-Oct-21 13:12 39.184330 -102.877963 244 31999ft 464kts
23-Oct-21 13:13 39.129137 -103.028212 244 31999ft 464kts
23-Oct-21 13:14 39.073789 -103.178100 244 31999ft 464kts
23-Oct-21 13:15 39.018105 -103.328131 244 31999ft 464kts
23-Oct-21 13:16 38.962445 -103.477339 244 31999ft 464kts
23-Oct-21 13:17 38.906535 -103.626476 244 31999ft 464kts
23-Oct-21 13:18 38.850257 -103.775107 243 31999ft 464kts
23-Oct-21 13:19 38.793826 -103.923927 243 31999ft 464kts
23-Oct-21 13:20 38.737233 -104.072636 243 31999ft 464kts
23-Oct-21 13:21 38.680573 -104.220799 243 31999ft 464kts
23-Oct-21 13:22 38.623718 -104.368733 243 31999ft 464kts
23-Oct-21 13:23 38.566570 -104.516686 243 31999ft 464kts
23-Oct-21 13:24 38.509408 -104.663948 243 31999ft 464kts
23-Oct-21 13:25 38.451914 -104.811688 243 31999ft 464kts
23-Oct-21 13:26 38.394293 -104.958364 243 31999ft 464kts
23-Oct-21 13:27 38.336235 -105.105587 244 31998ft 464kts
23-Oct-21 13:28 38.281709 -105.254180 245 31999ft 464kts
23-Oct-21 13:29 38.226541 -105.402681 244 31999ft 464kts
23-Oct-21 13:30 38.171116 -105.550628 244 31999ft 464kts
23-Oct-21 13:31 38.115346 -105.698788 244 31999ft 464kts
23-Oct-21 13:32 38.059617 -105.845975 244 31999ft 464kts
23-Oct-21 13:33 38.003466 -105.993666 245 31997ft 464kts
23-Oct-21 13:34 37.954427 -106.145599 247 31999ft 464kts
23-Oct-21 13:35 37.905399 -106.297026 247 31999ft 464kts
23-Oct-21 13:36 37.855451 -106.448659 247 31998ft 464kts
23-Oct-21 13:37 37.805644 -106.599947 247 31998ft 464kts
23-Oct-21 13:38 37.756071 -106.750482 247 31999ft 464kts
23-Oct-21 13:39 37.706235 -106.900935 247 31999ft 464kts
23-Oct-21 13:40 37.656260 -107.050837 247 31999ft 464kts
23-Oct-21 13:41 37.605992 -107.200817 247 31999ft 465kts
23-Oct-21 13:42 37.555568 -107.350492 247 31999ft 465kts
23-Oct-21 13:43 37.505005 -107.499830 247 33072ft 450kts
23-Oct-21 13:44 37.455876 -107.644110 247 33790ft 449kts
23-Oct-21 13:45 37.406396 -107.789233 246 33999ft 458kts
23-Oct-21 13:46 37.355882 -107.936354 246 33998ft 460kts
23-Oct-21 13:47 37.306023 -108.080697 246 33999ft 460kts
23-Oct-21 13:48 37.256710 -108.222734 246 33999ft 460kts
23-Oct-21 13:49 37.205638 -108.369055 246 33999ft 460kts
23-Oct-21 13:50 37.154067 -108.515970 246 33999ft 460kts
23-Oct-21 13:51 37.102297 -108.662414 245 33999ft 460kts
23-Oct-21 13:52 37.051064 -108.809022 248 33998ft 460kts
23-Oct-21 13:53 37.005337 -108.958333 248 33998ft 460kts
23-Oct-21 13:54 36.958997 -109.107379 248 33999ft 460kts
23-Oct-21 13:55 36.912541 -109.255654 248 33999ft 460kts
23-Oct-21 13:56 36.865413 -109.404057 248 33998ft 460kts
23-Oct-21 13:57 36.818198 -109.552530 248 33998ft 460kts
23-Oct-21 13:58 36.771116 -109.700532 248 33999ft 460kts
23-Oct-21 13:59 36.723883 -109.848552 248 33999ft 460kts
23-Oct-21 14:00 36.676332 -109.996477 248 33999ft 460kts
23-Oct-21 14:01 36.628624 -110.144093 248 33998ft 460kts
23-Oct-21 14:02 36.580870 -110.291097 248 33998ft 460kts
23-Oct-21 14:03 36.532347 -110.439713 248 33998ft 460kts
23-Oct-21 14:04 36.483698 -110.587978 248 33998ft 460kts
23-Oct-21 14:05 36.435077 -110.735680 247 33998ft 460kts
23-Oct-21 14:06 36.386452 -110.882591 247 33998ft 460kts
23-Oct-21 14:07 36.337645 -111.029092 247 33998ft 460kts
23-Oct-21 14:08 36.288667 -111.175352 247 33999ft 460kts
23-Oct-21 14:09 36.238912 -111.323159 247 33999ft 460kts
23-Oct-21 14:10 36.189001 -111.470623 247 33999ft 460kts
23-Oct-21 14:11 36.138682 -111.618379 247 33999ft 460kts
23-Oct-21 14:12 36.088546 -111.764619 246 33998ft 460kts
23-Oct-21 14:13 36.040857 -111.911151 248 33998ft 460kts
23-Oct-21 14:15 35.994272 -112.058304 248 33999ft 460kts
23-Oct-21 14:16 35.947216 -112.204715 248 33999ft 460kts
23-Oct-21 14:17 35.899910 -112.351015 248 33999ft 460kts
23-Oct-21 14:18 35.851943 -112.497172 248 33998ft 460kts
23-Oct-21 14:19 35.804060 -112.643484 248 33998ft 460kts
23-Oct-21 14:20 35.756261 -112.789494 247 33999ft 460kts
23-Oct-21 14:21 35.708224 -112.935068 247 33998ft 460kts
23-Oct-21 14:22 35.659828 -113.080681 247 33998ft 460kts
23-Oct-21 14:23 35.611227 -113.225955 247 33998ft 460kts
23-Oct-21 14:24 35.563016 -113.371584 247 33998ft 460kts
23-Oct-21 14:25 35.514390 -113.516555 247 33998ft 460kts
23-Oct-21 14:26 35.465512 -113.661272 247 33998ft 460kts
23-Oct-21 14:27 35.416465 -113.806254 247 33998ft 460kts
23-Oct-21 14:28 35.367135 -113.950968 247 33998ft 460kts
23-Oct-21 14:29 35.317564 -114.095583 247 33998ft 460kts
23-Oct-21 14:30 35.267903 -114.239706 247 33999ft 460kts
23-Oct-21 14:31 35.217930 -114.383909 247 33999ft 460kts
23-Oct-21 14:32 35.167852 -114.527311 247 33999ft 460kts
23-Oct-21 14:33 35.117754 -114.671085 247 33999ft 460kts
23-Oct-21 14:34 35.067600 -114.815489 246 33998ft 460kts
23-Oct-21 14:35 35.014296 -114.957074 242 33999ft 460kts
23-Oct-21 14:36 34.954463 -115.095187 242 33999ft 460kts
23-Oct-21 14:37 34.894395 -115.232829 241 33999ft 460kts
23-Oct-21 14:38 34.833786 -115.369996 242 33998ft 460kts
23-Oct-21 14:39 34.776354 -115.509059 246 33999ft 460kts
23-Oct-21 14:40 34.724192 -115.651258 245 33998ft 460kts
23-Oct-21 14:40 34.681656 -115.766409 245 33999ft 460kts
23-Oct-21 14:42 34.620030 -115.932560 246 33998ft 460kts
23-Oct-21 14:43 34.568082 -116.074366 245 33998ft 460kts
23-Oct-21 14:44 34.515612 -116.215796 245 33988ft 460kts
23-Oct-21 14:44 34.471835 -116.332974 245 31972ft 462kts
23-Oct-21 14:45 34.418271 -116.475552 244 28716ft 467kts
23-Oct-21 14:47 34.350033 -116.641750 243 24660ft 470kts
23-Oct-21 14:47 34.303572 -116.756841 244 22876ft 439kts
23-Oct-21 14:48 34.253209 -116.881630 243 21191ft 389kts
23-Oct-21 14:49 34.207434 -117.001413 250 19398ft 374kts
23-Oct-21 14:51 34.170293 -117.137550 251 17444ft 360kts
23-Oct-21 14:51 34.144435 -117.232298 251 16073ft 351kts
23-Oct-21 14:52 34.113875 -117.342685 251 14458ft 341kts
23-Oct-21 14:53 34.085504 -117.452774 253 12845ft 332kts
23-Oct-21 14:54 34.054173 -117.554605 246 11563ft 314kts
23-Oct-21 14:55 34.017467 -117.655726 246 10092ft 302kts
23-Oct-21 14:56 34.001126 -117.749484 263 9048ft 284kts
23-Oct-21 14:57 33.992181 -117.843306 263 7675ft 278kts
23-Oct-21 14:58 33.983353 -117.933928 263 6586ft 262kts
23-Oct-21 14:59 33.975253 -118.018191 264 5655ft 243kts
23-Oct-21 15:00 33.967708 -118.095457 262 4770ft 237kts
23-Oct-21 15:01 33.959121 -118.173783 262 3529ft 234kts
23-Oct-21 15:02 33.951125 -118.249475 262 2331ft 211kts
23-Oct-21 15:03 33.944634 -118.311919 262 1296ft 164kts
23-Oct-21 15:04 33.939451 -118.362919 262 499ft 151kts
23-Oct-21 15:05 33.935432 -118.402846 269 114ft 49kts
23-Oct-21 15:06 33.936347 -118.408879 343 114ft 18kts
23-Oct-21 15:07 33.937865 -118.409117 352 114ft 0kts
23-Oct-21 15:08 33.938789 -118.408085 81 114ft 17kts
23-Oct-21 15:09 33.941439 -118.405937 279 114ft 9kts

Navigation Log

Ident Type
Flight plan parsing failed, navigation log unavailable